Terminal Aerodrome Forecast
Issued by NWS

Home | Current Version | Previous Version | Text Only | Print | Product List | Glossary On
Versions: 1 2 3 4 5 6 7 8 9 10 11 12 13 14 15 16 17 18
000
FTUS43 KSGF 281700
TAFBBG
TAF
KBBG 281721Z 2818/0118 13007KT 1SM -SN BR OVC007
      TEMPO 2818/2822 1/2SM SN FG OVC003
     FM010400 11006KT 1SM -FZRASN BR OVC003
     FM011400 VRB03KT 3SM -SHRA BR OVC005=

USA.gov is the U.S. government's official web portal to all federal, state and local government web resources and services.